Time;durP1;ratioP1;P1;durP2;ratioP2;P2;SDS_P1;SDS_P2;PMS_P1;PMS_P2;Temp;Humidity;BMP_temperature;BMP_pressure;BME280_temperature;BME280_humidity;BME280_pressure;Samples;Min_cycle;Max_cycle;Signal;HPM_P1;HPM_P2
2023/08/01 00:01:07;;;;;;;7.15;2.65;;;;;;;16.64;89.68;99797.06;7397091;19;19926;-78
2023/08/01 00:03:36;;;;;;;6.50;2.30;;;;;;;16.62;90.01;99792.91;7400929;19;20344;-78
2023/08/01 00:06:04;;;;;;;5.25;2.13;;;;;;;16.62;89.92;99793.75;7399377;19;19922;-78
2023/08/01 00:08:34;;;;;;;6.93;2.20;;;;;;;16.61;89.85;99792.06;7397498;19;19926;-77
2023/08/01 00:11:02;;;;;;;7.50;2.53;;;;;;;16.60;89.92;99789.63;7399207;19;19922;-78
2023/08/01 00:13:31;;;;;;;8.05;2.55;;;;;;;16.58;89.67;99789.84;7400227;19;19937;-78
2023/08/01 00:16:00;;;;;;;7.47;2.20;;;;;;;16.56;89.86;99786.53;7399094;19;20364;-79
2023/08/01 00:18:31;;;;;;;6.07;2.40;;;;;;;16.53;89.90;99795.16;7398486;19;19943;-78
2023/08/01 00:20:59;;;;;;;6.65;2.35;;;;;;;16.53;89.85;99786.16;7395715;19;19974;-78
2023/08/01 00:23:28;;;;;;;9.88;2.20;;;;;;;16.51;89.51;99796.47;7397853;19;19923;-78
2023/08/01 00:25:57;;;;;;;10.02;2.80;;;;;;;16.51;89.91;99780.16;7398195;19;19976;-77
2023/08/01 00:28:26;;;;;;;4.78;2.22;;;;;;;16.50;89.50;99778.50;7399837;19;19951;-78
2023/08/01 00:31:04;;;;;;;6.53;2.25;;;;;;;16.44;89.79;99788.44;7396890;19;20278;-78
2023/08/01 00:33:36;;;;;;;5.60;2.30;;;;;;;16.47;89.88;99784.44;7398990;19;19926;-78
2023/08/01 00:36:08;;;;;;;9.35;2.58;;;;;;;16.46;89.84;99771.91;7399327;19;19971;-78
2023/08/01 00:38:40;;;;;;;6.85;2.10;;;;;;;16.44;89.55;99766.69;7400246;19;19922;-77
2023/08/01 00:41:09;;;;;;;7.47;2.47;;;;;;;16.42;89.84;99765.31;7405083;19;19927;-78
2023/08/01 00:43:38;;;;;;;7.47;2.30;;;;;;;16.42;89.67;99759.88;7400263;19;19939;-78
2023/08/01 00:46:08;;;;;;;11.23;2.42;;;;;;;16.39;89.77;99741.34;7402522;19;19947;-78
2023/08/01 00:48:39;;;;;;;9.93;2.85;;;;;;;16.38;89.92;99739.66;7401413;19;19930;-77
2023/08/01 00:51:09;;;;;;;9.65;2.92;;;;;;;16.38;89.82;99745.09;7404745;19;19992;-78
2023/08/01 00:53:38;;;;;;;7.43;2.70;;;;;;;16.37;89.71;99743.44;7404113;19;19933;-78
2023/08/01 00:56:07;;;;;;;11.80;2.70;;;;;;;16.37;89.64;99738.84;7405470;19;19943;-78
2023/08/01 00:58:36;;;;;;;6.32;2.47;;;;;;;16.35;89.86;99735.56;7404891;19;19949;-78
2023/08/01 01:01:04;;;;;;;11.90;2.92;;;;;;;16.34;89.50;99740.16;7402815;19;19961;-78
2023/08/01 01:03:33;;;;;;;7.13;2.65;;;;;;;16.32;89.75;99734.13;7404198;19;19953;-78
2023/08/01 01:06:12;;;;;;;9.55;3.15;;;;;;;16.30;89.89;99740.88;7401598;19;19935;-78
2023/08/01 01:08:41;;;;;;;7.00;2.80;;;;;;;16.28;89.80;99727.53;7405522;19;19952;-78
2023/08/01 01:11:10;;;;;;;8.07;2.63;;;;;;;16.28;90.12;99729.41;7404387;19;19936;-77
2023/08/01 01:13:39;;;;;;;6.15;2.75;;;;;;;16.25;90.38;99732.63;7405162;19;19996;-78
2023/08/01 01:16:07;;;;;;;8.40;3.22;;;;;;;16.22;90.38;99735.84;7404734;19;19940;-78
2023/08/01 01:18:36;;;;;;;7.10;2.92;;;;;;;16.18;90.01;99740.91;7404560;19;20255;-77
2023/08/01 01:21:07;;;;;;;9.25;3.40;;;;;;;16.17;90.46;99736.56;7401280;19;19935;-77
2023/08/01 01:23:37;;;;;;;10.00;3.35;;;;;;;16.16;90.19;99732.19;7403457;19;19914;-78
2023/08/01 01:26:09;;;;;;;5.70;2.85;;;;;;;16.15;90.02;99730.53;7403321;19;19922;-79
2023/08/01 01:28:39;;;;;;;6.85;2.50;;;;;;;16.14;90.00;99739.75;7403313;19;19918;-78
2023/08/01 01:31:08;;;;;;;10.40;3.15;;;;;;;16.13;90.12;99735.38;7402969;19;19994;-78
2023/08/01 01:33:37;;;;;;;8.50;2.72;;;;;;;16.11;90.17;99729.34;7403659;19;19915;-78
2023/08/01 01:36:08;;;;;;;7.35;2.55;;;;;;;16.10;90.19;99726.88;7404623;19;19979;-78
2023/08/01 01:38:37;;;;;;;7.20;2.63;;;;;;;16.09;89.96;99722.53;7402779;19;20285;-78
2023/08/01 01:41:05;;;;;;;6.85;2.10;;;;;;;16.07;89.54;99711.88;7403854;19;19978;-78
2023/08/01 01:43:34;;;;;;;7.60;2.38;;;;;;;16.05;89.32;99714.00;7403875;19;20283;-79
2023/08/01 01:46:02;;;;;;;6.97;2.55;;;;;;;16.02;89.25;99714.50;7402667;19;19945;-78
2023/08/01 01:48:34;;;;;;;4.20;2.10;;;;;;;15.98;88.94;99713.34;7304069;19;19923;-77
2023/08/01 01:51:02;;;;;;;6.40;1.80;;;;;;;15.96;88.98;99712.75;7399354;19;19935;-78
2023/08/01 01:53:33;;;;;;;6.35;1.80;;;;;;;15.96;88.79;99704.63;7398033;19;19927;-78
2023/08/01 01:56:02;;;;;;;7.28;2.35;;;;;;;15.94;88.50;99698.56;7402439;19;19922;-78
2023/08/01 01:58:31;;;;;;;4.18;1.73;;;;;;;15.92;88.85;99702.63;7400440;19;19947;-78
2023/08/01 02:00:59;;;;;;;3.65;1.70;;;;;;;15.88;88.05;99692.22;7403411;19;19922;-77
2023/08/01 02:03:28;;;;;;;5.40;1.80;;;;;;;15.86;88.12;99694.34;7401414;19;20278;-78
2023/08/01 02:05:56;;;;;;;3.35;1.88;;;;;;;15.86;88.01;99690.81;7402522;19;19922;-78
2023/08/01 02:08:25;;;;;;;6.03;2.33;;;;;;;15.82;88.01;99681.50;7404908;19;19922;-78
2023/08/01 02:10:58;;;;;;;4.75;1.70;;;;;;;15.80;87.99;99676.28;7401886;19;19918;-77
2023/08/01 02:13:26;;;;;;;2.58;1.70;;;;;;;15.79;88.06;99663.78;7403277;19;19944;-77
2023/08/01 02:15:55;;;;;;;6.38;2.55;;;;;;;15.75;88.03;99670.75;7401855;19;20367;-77
2023/08/01 02:18:24;;;;;;;4.28;1.85;;;;;;;15.72;87.97;99667.69;7400698;19;19919;-77
2023/08/01 02:20:52;;;;;;;5.70;1.70;;;;;;;15.67;87.45;99670.28;7402890;19;20320;-78
2023/08/01 02:23:21;;;;;;;3.78;2.38;;;;;;;15.62;87.90;99664.78;7403245;19;19926;-78
2023/08/01 02:25:50;;;;;;;5.97;1.80;;;;;;;15.58;87.89;99658.16;7402238;19;19926;-77
2023/08/01 02:28:21;;;;;;;4.97;1.67;;;;;;;15.55;88.08;99662.19;7400004;19;20334;-77
2023/08/01 02:30:50;;;;;;;5.03;1.92;;;;;;;15.51;88.00;99663.72;7398268;19;19922;-78
2023/08/01 02:33:19;;;;;;;5.20;2.03;;;;;;;15.47;88.61;99658.97;7400367;19;19930;-77
2023/08/01 02:35:49;;;;;;;8.32;2.88;;;;;;;15.44;88.84;99655.66;7403806;19;19935;-77
2023/08/01 02:38:17;;;;;;;6.28;2.15;;;;;;;15.40;88.91;99650.97;7403624;19;20349;-77
2023/08/01 02:40:46;;;;;;;6.32;1.90;;;;;;;15.37;89.11;99649.53;7399324;19;19959;-77
2023/08/01 02:43:14;;;;;;;3.72;1.90;;;;;;;15.34;88.77;99644.59;7407814;19;19922;-77
2023/08/01 02:45:47;;;;;;;5.68;2.20;;;;;;;15.32;88.89;99645.88;7402532;19;19930;-77
2023/08/01 02:48:15;;;;;;;3.90;1.88;;;;;;;15.32;89.04;99654.03;7400968;19;20058;-77
2023/08/01 02:50:44;;;;;;;4.43;1.60;;;;;;;15.32;89.08;99651.31;7400269;19;19922;-77
2023/08/01 02:53:12;;;;;;;4.90;1.83;;;;;;;15.30;89.29;99653.44;7403925;19;19987;-77
2023/08/01 02:55:41;;;;;;;5.13;2.08;;;;;;;15.27;89.06;99667.50;7401131;19;19943;-77
2023/08/01 02:58:09;;;;;;;4.47;1.90;;;;;;;15.23;89.15;99669.84;7403323;19;19926;-77
2023/08/01 03:00:41;;;;;;;5.93;2.13;;;;;;;15.19;89.19;99667.84;7402423;19;20450;-77
2023/08/01 03:03:12;;;;;;;4.78;2.00;;;;;;;15.13;89.15;99658.78;7400394;19;20261;-78
2023/08/01 03:05:40;;;;;;;7.25;2.30;;;;;;;15.07;89.65;99661.59;7402269;19;20393;-77
2023/08/01 03:08:09;;;;;;;9.18;2.28;;;;;;;15.04;89.75;99659.34;7402528;19;19943;-77
2023/08/01 03:10:38;;;;;;;8.25;2.20;;;;;;;15.03;89.37;99663.94;7401161;19;19927;-77
2023/08/01 03:13:07;;;;;;;5.57;2.17;;;;;;;15.02;89.45;99665.00;7400527;19;19919;-78
2023/08/01 03:15:35;;;;;;;7.40;1.90;;;;;;;15.01;89.58;99659.84;7400866;19;19958;-77
2023/08/01 03:18:04;;;;;;;6.57;2.22;;;;;;;14.99;89.75;99662.78;7400393;19;19923;-77
2023/08/01 03:20:36;;;;;;;5.18;1.52;;;;;;;14.99;89.83;99668.19;7397522;19;20254;-78
2023/08/01 03:23:04;;;;;;;;;;;;;;;14.84;90.16;99668.63;7397706;19;19930;-77
2023/08/01 03:25:33;;;;;;;6.88;2.40;;;;;;;14.97;89.58;99664.91;7401820;19;19918;-77
2023/08/01 03:28:01;;;;;;;6.15;2.00;;;;;;;14.98;89.94;99664.66;7395731;19;19923;-77
2023/08/01 03:30:30;;;;;;;5.88;2.20;;;;;;;15.01;89.83;99660.66;7397706;19;19923;-77
2023/08/01 03:32:59;;;;;;;7.30;2.40;;;;;;;15.02;89.99;99662.28;7401435;19;19918;-77
2023/08/01 03:35:27;;;;;;;7.50;2.35;;;;;;;15.04;89.82;99657.47;7398357;19;19919;-77
2023/08/01 03:37:58;;;;;;;8.43;2.05;;;;;;;15.05;90.04;99651.00;7400343;19;19959;-77
2023/08/01 03:40:27;;;;;;;6.93;2.30;;;;;;;15.06;90.08;99646.41;7399789;19;19923;-77
2023/08/01 03:42:56;;;;;;;7.03;2.20;;;;;;;15.08;89.76;99647.81;7399393;19;19918;-77
2023/08/01 03:45:24;;;;;;;7.50;2.38;;;;;;;15.09;90.04;99646.75;7397440;19;19926;-77
2023/08/01 03:47:53;;;;;;;5.40;2.00;;;;;;;15.10;90.21;99640.22;7400744;19;20401;-77
2023/08/01 03:50:21;;;;;;;5.53;2.85;;;;;;;15.10;90.05;99634.00;7399722;19;19923;-77
2023/08/01 03:52:51;;;;;;;8.27;2.80;;;;;;;15.08;90.23;99642.38;7400242;19;20308;-77
2023/08/01 03:55:22;;;;;;;7.63;2.60;;;;;;;15.09;90.06;99644.03;7400963;19;19956;-77
2023/08/01 03:57:51;;;;;;;14.18;2.80;;;;;;;15.10;90.05;99640.22;7401272;19;20373;-77
2023/08/01 04:00:19;;;;;;;10.77;3.08;;;;;;;15.12;90.08;99637.28;7399902;19;19935;-77
2023/08/01 04:02:48;;;;;;;5.75;3.05;;;;;;;15.15;90.20;99653.09;7398482;19;19932;-78
2023/08/01 04:05:17;;;;;;;8.55;3.30;;;;;;;15.16;90.44;99647.44;7398896;19;19919;-77
2023/08/01 04:07:45;;;;;;;6.85;2.60;;;;;;;15.18;90.21;99650.75;7400087;19;19929;-77
2023/08/01 04:10:14;;;;;;;7.10;3.25;;;;;;;15.17;90.30;99643.69;7397403;19;20362;-78
2023/08/01 04:12:45;;;;;;;8.63;2.97;;;;;;;15.17;90.35;99640.97;7401554;19;19988;-76
2023/08/01 04:15:14;;;;;;;9.48;3.10;;;;;;;15.18;90.70;99653.47;7396256;19;20294;-77
2023/08/01 04:17:43;;;;;;;6.63;3.45;;;;;;;15.18;90.57;99655.34;7397662;19;19939;-78
2023/08/01 04:20:12;;;;;;;7.93;2.53;;;;;;;15.18;90.78;99661.59;7398979;19;20242;-77
2023/08/01 04:22:41;;;;;;;10.02;3.55;;;;;;;15.17;91.02;99659.94;7398505;19;19918;-77
2023/08/01 04:25:10;;;;;;;4.95;2.63;;;;;;;15.20;90.91;99651.34;7398783;19;20338;-77
2023/08/01 04:27:39;;;;;;;4.95;2.60;;;;;;;15.21;90.71;99650.28;7393479;19;20374;-77
2023/08/01 04:30:11;;;;;;;8.85;2.38;;;;;;;15.25;90.37;99666.91;7398745;19;19919;-77
2023/08/01 04:32:40;;;;;;;9.25;2.85;;;;;;;15.26;90.40;99661.25;7399285;19;19914;-77
2023/08/01 04:35:09;;;;;;;7.45;2.70;;;;;;;15.27;90.60;99665.59;7396195;19;19926;-77
2023/08/01 04:37:38;;;;;;;6.97;2.33;;;;;;;15.27;90.05;99665.59;7399210;19;20392;-77
2023/08/01 04:40:08;;;;;;;5.32;2.47;;;;;;;15.26;90.46;99671.28;7397468;19;19955;-77
2023/08/01 04:42:36;;;;;;;4.68;2.20;;;;;;;15.25;90.50;99656.03;7396082;19;19951;-77
2023/08/01 04:45:06;;;;;;;8.15;2.53;;;;;;;15.25;90.27;99669.63;7397205;19;19926;-77
2023/08/01 04:47:38;;;;;;;5.18;2.35;;;;;;;15.25;90.68;99667.72;7402538;19;19969;-77
2023/08/01 04:50:08;;;;;;;5.72;2.33;;;;;;;15.25;90.34;99673.16;7397982;19;20012;-77
2023/08/01 04:52:37;;;;;;;6.68;2.53;;;;;;;15.26;90.32;99672.09;7398281;19;19918;-77
2023/08/01 04:55:06;;;;;;;5.70;2.22;;;;;;;15.29;90.42;99668.06;7398607;19;20314;-77
2023/08/01 04:57:34;;;;;;;4.93;2.25;;;;;;;15.31;90.46;99671.41;7397727;19;19931;-77
2023/08/01 05:00:03;;;;;;;8.20;2.30;;;;;;;15.31;90.66;99677.66;7394230;19;19922;-77
2023/08/01 05:02:31;;;;;;;8.20;2.53;;;;;;;15.33;90.76;99672.78;7396829;19;19919;-77
2023/08/01 05:05:03;;;;;;;12.00;2.40;;;;;;;15.38;90.66;99667.50;7394911;19;20516;-77
2023/08/01 05:07:52;;;;;;;6.55;2.35;;;;;;;15.45;90.59;99661.91;7391904;19;19919;-77
2023/08/01 05:10:20;;;;;;;8.07;2.03;;;;;;;15.52;90.28;99672.69;7395881;19;19927;-76
2023/08/01 05:12:49;;;;;;;8.43;2.03;;;;;;;15.55;90.33;99666.78;7398382;19;19948;-77
2023/08/01 05:15:18;;;;;;;5.22;1.90;;;;;;;15.54;89.85;99671.38;7393617;19;19954;-77
2023/08/01 05:17:47;;;;;;;6.18;1.95;;;;;;;15.53;90.27;99663.50;7394270;19;19936;-77
2023/08/01 05:20:18;;;;;;;6.53;2.13;;;;;;;15.50;90.12;99669.34;7391572;19;19943;-78
2023/08/01 05:22:47;;;;;;;5.35;2.08;;;;;;;15.47;90.36;99664.41;7397173;19;19922;-77
2023/08/01 05:25:15;;;;;;;6.45;2.13;;;;;;;15.43;90.33;99661.34;7398182;19;19962;-77
2023/08/01 05:27:44;;;;;;;7.15;2.00;;;;;;;15.41;89.93;99666.19;7399486;19;19943;-77
2023/08/01 05:30:14;;;;;;;6.18;2.20;;;;;;;15.41;90.20;99682.47;7401381;19;19927;-77
2023/08/01 05:32:43;;;;;;;5.95;2.08;;;;;;;15.38;90.15;99685.66;7405191;19;20015;-77
2023/08/01 05:35:12;;;;;;;8.27;2.45;;;;;;;15.36;89.97;99675.03;7404632;19;19948;-77
2023/08/01 05:37:43;;;;;;;7.57;3.05;;;;;;;15.35;90.17;99673.41;7404019;19;19923;-77
2023/08/01 05:40:13;;;;;;;5.78;1.35;;;;;;;15.38;90.14;99672.09;7403376;19;20308;-77
2023/08/01 05:42:42;;;;;;;3.55;1.30;;;;;;;15.42;89.73;99675.97;7401922;19;19930;-77
2023/08/01 05:45:12;;;;;;;5.53;1.83;;;;;;;15.47;89.24;99676.09;7400605;19;20777;-77
2023/08/01 05:47:40;;;;;;;3.72;1.10;;;;;;;15.53;89.03;99688.75;7402933;19;20481;-77
2023/08/01 05:50:10;;;;;;;2.67;1.08;;;;;;;15.56;88.97;99684.72;7396712;19;19944;-77
2023/08/01 05:52:38;;;;;;;5.80;1.30;;;;;;;15.64;88.98;99687.06;7402756;19;19918;-77
2023/08/01 05:55:10;;;;;;;3.97;1.50;;;;;;;15.70;88.71;99681.53;7405210;19;19922;-77
2023/08/01 05:57:39;;;;;;;;;;;;;;;15.65;88.18;99684.13;7404370;19;19936;-77
2023/08/01 06:00:09;;;;;;;2.13;1.08;;;;;;;15.84;88.33;99692.94;7402707;19;19960;-77
2023/08/01 06:02:37;;;;;;;3.95;1.45;;;;;;;15.90;88.22;99691.97;7403821;19;20501;-77
2023/08/01 06:05:07;;;;;;;4.60;1.08;;;;;;;15.88;88.44;99704.97;7394489;19;20362;-76
2023/08/01 06:07:36;;;;;;;5.00;1.15;;;;;;;15.75;88.45;99691.66;7399182;19;19974;-75
2023/08/01 06:10:05;;;;;;;8.73;1.33;;;;;;;15.64;88.96;99689.78;7396611;19;19926;-77
2023/08/01 06:12:36;;;;;;;6.03;1.15;;;;;;;15.55;89.66;99683.91;7396868;19;20308;-77
2023/08/01 06:15:05;;;;;;;3.80;1.40;;;;;;;15.52;89.66;99688.97;7399460;19;19922;-77
2023/08/01 06:17:34;;;;;;;3.78;1.00;;;;;;;15.48;89.39;99682.34;7398678;19;20291;-77
2023/08/01 06:20:04;;;;;;;4.15;1.58;;;;;;;15.44;89.06;99699.09;7399335;19;19922;-77
2023/08/01 06:22:32;;;;;;;3.38;1.15;;;;;;;15.43;89.42;99702.88;7397589;19;19925;-77
2023/08/01 06:25:01;;;;;;;3.45;1.02;;;;;;;15.46;89.78;99696.16;7402505;19;19934;-78
2023/08/01 06:27:29;;;;;;;3.15;1.00;;;;;;;15.51;89.39;99698.19;7403008;19;19992;-78
2023/08/01 06:30:01;;;;;;;5.13;1.23;;;;;;;15.55;89.37;99700.19;7402736;19;19952;-78
2023/08/01 06:32:29;;;;;;;4.95;1.20;;;;;;;15.63;89.40;99697.09;7403655;19;19932;-78
2023/08/01 06:34:58;;;;;;;2.10;0.88;;;;;;;15.74;88.52;99699.00;7403366;19;20162;-77
2023/08/01 06:37:26;;;;;;;3.28;1.10;;;;;;;15.84;88.58;99695.63;7402119;19;19949;-77
2023/08/01 06:39:55;;;;;;;2.00;1.30;;;;;;;15.88;87.89;99694.09;7403413;19;19930;-77
2023/08/01 06:42:23;;;;;;;4.93;1.00;;;;;;;15.89;87.92;99701.19;7399684;19;19939;-78
2023/08/01 06:44:52;;;;;;;1.95;0.95;;;;;;;15.89;87.63;99691.16;7399681;19;20408;-76
2023/08/01 06:47:23;;;;;;;2.20;0.98;;;;;;;15.89;88.08;99690.31;7402803;19;20282;-77
2023/08/01 06:49:52;;;;;;;1.25;0.80;;;;;;;15.89;87.47;99695.75;7403538;19;19927;-77
2023/08/01 06:52:20;;;;;;;5.88;1.10;;;;;;;15.88;88.12;99688.66;7403279;19;19918;-77
2023/08/01 06:54:49;;;;;;;5.30;1.17;;;;;;;15.89;88.23;99685.72;7400942;19;19930;-77
2023/08/01 06:57:17;;;;;;;2.92;0.90;;;;;;;15.89;88.03;99691.16;7397218;19;19931;-78
2023/08/01 06:59:46;;;;;;;2.38;1.00;;;;;;;15.84;88.20;99691.03;7401095;19;19926;-77
2023/08/01 07:02:15;;;;;;;3.58;1.05;;;;;;;15.82;88.42;99700.50;7401896;19;19926;-76
2023/08/01 07:04:46;;;;;;;2.75;1.20;;;;;;;15.77;88.37;99695.78;7400884;19;19943;-76
2023/08/01 07:07:15;;;;;;;3.58;1.02;;;;;;;15.73;88.25;99708.19;7396670;19;19951;-83
2023/08/01 07:09:43;;;;;;;3.05;1.15;;;;;;;15.72;88.68;99708.44;7396468;19;19926;-79
2023/08/01 07:12:12;;;;;;;12.65;6.28;;;;;;;15.69;88.52;99698.88;7398803;19;20404;-83
2023/08/01 07:14:40;;;;;;;4.93;2.10;;;;;;;15.68;88.80;99704.53;7403503;19;20345;-78
2023/08/01 07:17:09;;;;;;;5.97;2.72;;;;;;;15.68;89.01;99699.94;7398314;19;19927;-78
2023/08/01 07:19:39;;;;;;;6.32;2.03;;;;;;;15.69;88.76;99706.19;7399811;19;20463;-84
2023/08/01 07:22:10;;;;;;;7.38;1.83;;;;;;;15.70;88.20;99708.69;7403172;19;19944;-81
2023/08/01 07:24:39;;;;;;;5.13;2.78;;;;;;;15.77;88.60;99684.09;7405335;19;19939;-80
2023/08/01 07:27:08;;;;;;;5.13;2.00;;;;;;;15.84;88.48;99687.50;7400377;19;20249;-84
2023/08/01 07:29:37;;;;;;;3.50;1.15;;;;;;;15.92;88.55;99687.13;7408307;19;19923;-88
2023/08/01 07:32:07;;;;;;;4.57;1.90;;;;;;;16.06;88.29;99691.22;7404549;19;19940;-82
2023/08/01 07:34:35;;;;;;;7.82;1.67;;;;;;;16.18;87.57;99688.47;7407990;19;19922;-88
2023/08/01 07:37:04;;;;;;;1.80;1.15;;;;;;;16.26;87.20;99685.38;7404975;19;19971;-80
2023/08/01 07:39:35;;;;;;;3.10;1.38;;;;;;;16.31;87.45;99688.97;7399591;19;19937;-82
2023/08/01 07:42:04;;;;;;;2.25;1.35;;;;;;;16.37;87.17;99683.66;7403795;19;19918;-79
2023/08/01 07:44:33;;;;;;;9.07;3.50;;;;;;;16.41;86.36;99692.97;7398214;19;19960;-76
2023/08/01 07:47:02;;;;;;;3.08;1.63;;;;;;;16.42;85.97;99694.63;7402303;19;19927;-80
2023/08/01 07:49:31;;;;;;;1.63;1.20;;;;;;;16.38;86.43;99698.91;7403215;19;19935;-84
2023/08/01 07:51:59;;;;;;;2.75;1.58;;;;;;;16.36;86.35;99685.53;7400623;19;19926;-81
2023/08/01 07:54:28;;;;;;;3.95;1.80;;;;;;;16.34;86.07;99685.81;7398360;19;20026;-77
2023/08/01 07:56:59;;;;;;;5.90;1.95;;;;;;;16.39;86.01;99695.13;7397842;19;19930;-77
2023/08/01 07:59:28;;;;;;;2.97;1.60;;;;;;;16.40;85.60;99685.88;7398610;19;19940;-83
2023/08/01 08:01:59;;;;;;;7.07;2.47;;;;;;;16.43;86.37;99691.69;7399526;19;19939;-74
2023/08/01 08:04:28;;;;;;;2.60;1.20;;;;;;;16.47;85.53;99694.72;7397551;19;19927;-75
2023/08/01 08:06:59;;;;;;;1.98;0.90;;;;;;;16.51;85.44;99690.44;7395139;19;19923;-76
2023/08/01 08:09:28;;;;;;;6.60;1.65;;;;;;;16.63;84.72;99704.84;7398833;19;19922;-77
2023/08/01 08:11:59;;;;;;;5.47;2.42;;;;;;;16.73;85.22;99685.97;7396967;19;19922;-76
2023/08/01 08:14:30;;;;;;;4.78;1.75;;;;;;;16.79;83.89;99704.03;7399323;19;19930;-77
2023/08/01 08:16:58;;;;;;;3.38;1.33;;;;;;;16.74;84.79;99693.03;7398934;19;19933;-76
2023/08/01 08:19:27;;;;;;;2.63;1.10;;;;;;;16.60;84.53;99695.28;7400081;19;19930;-75
2023/08/01 08:21:56;;;;;;;1.65;0.95;;;;;;;16.51;84.86;99695.88;7397178;19;19919;-79
2023/08/01 08:24:25;;;;;;;4.03;1.20;;;;;;;16.44;85.34;99698.75;7397321;19;19992;-78
2023/08/01 08:26:53;;;;;;;2.25;0.70;;;;;;;16.39;85.54;99692.41;7396065;19;19984;-75
2023/08/01 08:29:24;;;;;;;6.68;0.90;;;;;;;16.34;85.51;99688.53;7399673;19;19939;-77
2023/08/01 08:31:54;;;;;;;4.68;1.35;;;;;;;16.30;85.58;99690.06;7399586;19;20423;-76
2023/08/01 08:34:22;;;;;;;2.72;0.70;;;;;;;16.26;85.54;99690.81;7400145;19;19919;-78
2023/08/01 08:36:51;;;;;;;2.72;1.65;;;;;;;16.21;86.01;99683.38;7397840;19;19943;-77
2023/08/01 08:39:21;;;;;;;3.85;0.80;;;;;;;16.16;86.34;99696.88;7397950;19;19933;-75
2023/08/01 08:41:51;;;;;;;6.90;3.67;;;;;;;16.10;86.55;99699.69;7396815;19;19943;-78
2023/08/01 08:44:24;;;;;;;5.32;2.08;;;;;;;16.07;87.07;99698.31;7397886;19;19968;-77
2023/08/01 08:46:53;;;;;;;4.35;1.63;;;;;;;16.10;87.00;99700.53;7400383;19;19934;-76
2023/08/01 08:49:23;;;;;;;10.60;3.70;;;;;;;16.12;86.60;99717.44;7403416;19;20043;-76
2023/08/01 08:51:52;;;;;;;4.95;2.03;;;;;;;16.20;86.54;99702.63;7401666;19;20258;-93
2023/08/01 08:54:22;;;;;;;6.35;1.60;;;;;;;16.37;86.12;99705.41;7398077;19;19927;-67
2023/08/01 08:56:51;;;;;;;5.35;1.50;;;;;;;16.62;86.33;99704.00;7396774;19;19926;-79
2023/08/01 08:59:20;;;;;;;13.43;3.40;;;;;;;16.82;85.28;99713.59;7397358;19;19935;-84
2023/08/01 09:01:52;;;;;;;4.75;1.00;;;;;;;16.98;84.47;99710.88;7395945;19;19951;-80
2023/08/01 09:04:21;;;;;;;5.20;1.60;;;;;;;16.98;84.58;99705.44;7402032;19;19919;-78
2023/08/01 09:06:53;;;;;;;3.60;1.35;;;;;;;16.88;83.29;99705.28;7403304;19;19922;-76
2023/08/01 09:09:22;;;;;;;6.07;2.20;;;;;;;16.82;84.12;99709.00;7401265;19;19951;-79
2023/08/01 09:11:52;;;;;;;6.63;2.15;;;;;;;16.76;84.02;99723.56;7402140;19;19918;-81
2023/08/01 09:14:22;;;;;;;4.78;1.88;;;;;;;16.78;83.95;99708.63;7404912;19;19923;-75
2023/08/01 09:16:53;;;;;;;14.98;4.38;;;;;;;16.74;84.21;99715.63;7402656;19;20352;-75
2023/08/01 09:19:23;;;;;;;4.60;1.10;;;;;;;16.80;84.02;99708.41;7403867;19;19923;-79
2023/08/01 09:21:53;;;;;;;3.85;1.00;;;;;;;16.73;84.84;99718.63;7400438;19;19926;-78
2023/08/01 09:24:23;;;;;;;8.60;2.95;;;;;;;16.60;85.15;99717.03;7399534;19;19925;-79
2023/08/01 09:26:52;;;;;;;4.95;1.90;;;;;;;16.44;85.50;99706.09;7402661;19;19918;-77
2023/08/01 09:29:25;;;;;;;5.43;1.50;;;;;;;16.38;85.73;99732.34;7403621;19;19947;-77
2023/08/01 09:31:56;;;;;;;1.65;0.68;;;;;;;16.27;84.69;99714.19;7399964;19;19943;-80
2023/08/01 09:34:26;;;;;;;8.93;2.60;;;;;;;16.25;85.92;99719.88;7404145;19;19929;-79
2023/08/01 09:37:00;;;;;;;4.05;1.30;;;;;;;16.29;85.92;99725.63;7396906;19;19922;-79
2023/08/01 09:39:30;;;;;;;3.55;1.00;;;;;;;16.49;85.46;99730.63;7398816;19;20348;-77
2023/08/01 09:41:59;;;;;;;3.30;1.10;;;;;;;16.64;85.00;99730.97;7404502;19;19928;-79
2023/08/01 09:44:29;;;;;;;1.88;0.63;;;;;;;16.68;84.77;99716.63;7400691;19;19922;-81
2023/08/01 09:47:01;;;;;;;1.25;0.75;;;;;;;16.86;84.77;99729.19;7402715;19;20327;-80
2023/08/01 09:49:31;;;;;;;2.25;1.10;;;;;;;16.96;84.37;99734.78;7397327;19;19940;-80
2023/08/01 09:52:01;;;;;;;2.90;0.90;;;;;;;17.01;83.77;99721.28;7400878;19;19927;-81
2023/08/01 09:54:29;;;;;;;4.88;0.80;;;;;;;17.10;83.15;99725.25;7405313;19;19955;-83
2023/08/01 09:56:58;;;;;;;3.10;0.80;;;;;;;17.14;83.48;99742.72;7406035;19;19928;-82
2023/08/01 09:59:28;;;;;;;3.95;0.75;;;;;;;17.24;83.53;99731.19;7403379;19;19954;-76
2023/08/01 10:01:57;;;;;;;2.03;0.90;;;;;;;17.26;83.70;99734.47;7402320;19;19958;-77
2023/08/01 10:04:33;;;;;;;3.90;1.10;;;;;;;17.34;84.96;99725.06;7400911;19;19926;-76
2023/08/01 10:07:07;;;;;;;4.13;1.25;;;;;;;17.45;82.71;99726.88;7397516;19;19951;-76
2023/08/01 10:09:37;;;;;;;3.60;0.90;;;;;;;17.47;83.61;99741.91;7398078;19;19926;-77
2023/08/01 10:12:08;;;;;;;2.38;0.65;;;;;;;17.58;83.08;99737.44;7401301;19;20360;-77
2023/08/01 10:14:38;;;;;;;4.57;1.00;;;;;;;17.46;83.01;99731.25;7401764;19;19942;-77
2023/08/01 10:17:08;;;;;;;0.95;0.50;;;;;;;17.32;82.86;99738.94;7401648;19;20308;-77
2023/08/01 10:19:40;;;;;;;1.13;0.60;;;;;;;17.16;83.63;99740.59;7396061;19;19943;-81
2023/08/01 10:22:11;;;;;;;1.58;0.50;;;;;;;17.02;84.06;99746.59;7402027;19;20256;-80
2023/08/01 10:24:41;;;;;;;3.45;1.00;;;;;;;16.87;84.54;99752.56;7398132;19;20199;-81
2023/08/01 10:27:17;;;;;;;2.50;0.70;;;;;;;16.77;85.29;99741.53;7401932;19;19922;-78
2023/08/01 10:29:46;;;;;;;1.98;0.90;;;;;;;16.82;85.76;99748.97;7403158;19;19922;-77
2023/08/01 10:32:14;;;;;;;0.68;0.55;;;;;;;17.05;84.22;99743.38;7403456;19;19923;-81
2023/08/01 10:34:54;;;;;;;2.95;1.05;;;;;;;17.24;84.72;99763.84;7401292;19;19923;-79
2023/08/01 10:37:23;;;;;;;1.35;0.65;;;;;;;17.54;83.35;99766.22;7400424;19;19935;-78
2023/08/01 10:39:59;;;;;;;4.10;0.75;;;;;;;17.82;82.71;99755.22;7399455;19;19927;-78
2023/08/01 10:42:28;;;;;;;1.92;0.88;;;;;;;18.18;81.78;99752.97;7401065;19;20490;-78
2023/08/01 10:44:57;;;;;;;4.53;1.10;;;;;;;18.30;82.32;99750.91;7399137;19;19914;-79
2023/08/01 10:47:30;;;;;;;2.28;0.70;;;;;;;18.63;79.61;99749.97;7401882;19;19914;-79
2023/08/01 10:50:03;;;;;;;2.60;1.25;;;;;;;18.70;80.01;99756.03;7400323;19;19922;-80
2023/08/01 10:52:33;;;;;;;3.28;0.80;;;;;;;18.65;80.47;99745.91;7399365;19;19939;-80
2023/08/01 10:55:03;;;;;;;5.63;1.00;;;;;;;18.45;78.86;99760.13;7399129;19;20357;-77
2023/08/01 10:57:33;;;;;;;4.10;0.90;;;;;;;18.48;78.77;99764.22;7398166;19;19918;-74
2023/08/01 11:00:02;;;;;;;4.90;1.20;;;;;;;18.24;80.00;99758.22;7399083;19;19929;-74
2023/08/01 11:02:33;;;;;;;4.82;1.70;;;;;;;18.02;81.45;99771.84;7401125;19;19929;-76
2023/08/01 11:05:05;;;;;;;2.35;1.10;;;;;;;17.81;81.54;99786.28;7398972;19;19926;-74
2023/08/01 11:07:34;;;;;;;3.55;1.15;;;;;;;17.55;82.27;99778.78;7401068;19;20009;-75
2023/08/01 11:10:09;;;;;;;3.17;0.70;;;;;;;17.27;83.06;99774.22;7400276;19;19934;-76
2023/08/01 11:12:39;;;;;;;3.85;0.93;;;;;;;17.07;84.72;99791.03;7398953;19;19926;-74
2023/08/01 11:15:09;;;;;;;2.53;0.90;;;;;;;16.90;85.13;99801.06;7399839;19;20548;-75
2023/08/01 11:17:39;;;;;;;4.40;0.90;;;;;;;16.80;85.26;99792.72;7393995;19;20534;-75
2023/08/01 11:20:13;;;;;;;6.22;1.20;;;;;;;16.77;85.49;99790.50;7398381;19;19926;-77
2023/08/01 11:22:53;;;;;;;4.40;1.85;;;;;;;16.84;86.44;99793.88;7399581;19;19926;-74
2023/08/01 11:25:34;;;;;;;1.48;0.70;;;;;;;17.21;84.75;99797.00;7396208;19;20361;-75
2023/08/01 11:28:06;;;;;;;2.55;0.98;;;;;;;17.55;82.88;99795.09;7396128;19;19926;-76
2023/08/01 11:30:35;;;;;;;4.10;1.52;;;;;;;17.89;83.11;99780.41;7398973;19;19910;-75
2023/08/01 11:33:05;;;;;;;3.35;1.13;;;;;;;18.29;82.74;99791.03;7395020;19;19929;-80
2023/08/01 11:35:58;;;;;;;3.15;1.40;;;;;;;18.47;80.91;99800.75;7397992;19;19954;-80
2023/08/01 11:38:29;;;;;;;5.32;1.40;;;;;;;18.28;81.33;99792.09;7396510;19;19925;-82
2023/08/01 11:40:59;;;;;;;2.85;1.25;;;;;;;18.10;82.16;99809.56;7396391;19;20380;-81
2023/08/01 11:43:28;;;;;;;2.88;0.95;;;;;;;17.88;80.17;99791.53;7401942;19;20396;-80
2023/08/01 11:45:59;;;;;;;3.38;1.00;;;;;;;17.73;81.96;99805.78;7396825;19;19947;-78